sensor_id;sensor_type;location;lat;lon;timestamp;temperature;humidity
36498;DHT22;22513;51.222;6.480;2022-12-29T00:02:15;11.40;99.90
36498;DHT22;22513;51.222;6.480;2022-12-29T00:04:40;11.50;99.90
36498;DHT22;22513;51.222;6.480;2022-12-29T00:09:31;11.50;99.90
36498;DHT22;22513;51.222;6.480;2022-12-29T00:11:58;11.50;99.90
36498;DHT22;22513;51.222;6.480;2022-12-29T00:14:23;11.50;99.90
36498;DHT22;22513;51.222;6.480;2022-12-29T00:17:08;11.50;99.90
36498;DHT22;22513;51.222;6.480;2022-12-29T00:19:33;11.50;99.90
36498;DHT22;22513;51.222;6.480;2022-12-29T00:22:17;11.50;99.90
36498;DHT22;22513;51.222;6.480;2022-12-29T00:25:02;11.50;99.90
36498;DHT22;22513;51.222;6.480;2022-12-29T00:27:46;11.50;99.90
36498;DHT22;22513;51.222;6.480;2022-12-29T00:30:30;11.50;99.90
36498;DHT22;22513;51.222;6.480;2022-12-29T00:33:16;11.50;99.90
36498;DHT22;22513;51.222;6.480;2022-12-29T00:38:35;11.50;99.90
36498;DHT22;22513;51.222;6.480;2022-12-29T00:41:20;11.50;99.90
36498;DHT22;22513;51.222;6.480;2022-12-29T00:44:05;11.50;99.90
36498;DHT22;22513;51.222;6.480;2022-12-29T00:46:34;11.60;99.90
36498;DHT22;22513;51.222;6.480;2022-12-29T00:49:00;11.60;99.90
36498;DHT22;22513;51.222;6.480;2022-12-29T00:51:44;11.60;99.90
36498;DHT22;22513;51.222;6.480;2022-12-29T00:54:10;11.70;99.90
36498;DHT22;22513;51.222;6.480;2022-12-29T00:56:35;11.70;99.90
36498;DHT22;22513;51.222;6.480;2022-12-29T00:59:03;11.70;99.90
36498;DHT22;22513;51.222;6.480;2022-12-29T01:01:29;11.80;99.90
36498;DHT22;22513;51.222;6.480;2022-12-29T01:03:55;11.80;99.90
36498;DHT22;22513;51.222;6.480;2022-12-29T01:06:20;11.80;99.90
36498;DHT22;22513;51.222;6.480;2022-12-29T01:08:46;11.90;99.90
36498;DHT22;22513;51.222;6.480;2022-12-29T01:11:12;11.90;99.90
36498;DHT22;22513;51.222;6.480;2022-12-29T01:13:38;11.90;99.90
36498;DHT22;22513;51.222;6.480;2022-12-29T01:16:06;11.90;99.90
36498;DHT22;22513;51.222;6.480;2022-12-29T01:18:32;11.90;99.90
36498;DHT22;22513;51.222;6.480;2022-12-29T01:21:03;11.90;99.90
36498;DHT22;22513;51.222;6.480;2022-12-29T01:23:30;11.90;99.90
36498;DHT22;22513;51.222;6.480;2022-12-29T01:25:56;12.00;99.90
36498;DHT22;22513;51.222;6.480;2022-12-29T01:28:22;12.00;99.90
36498;DHT22;22513;51.222;6.480;2022-12-29T01:30:48;12.00;99.90
36498;DHT22;22513;51.222;6.480;2022-12-29T01:33:14;11.90;99.90
36498;DHT22;22513;51.222;6.480;2022-12-29T01:35:40;11.90;99.90
36498;DHT22;22513;51.222;6.480;2022-12-29T01:38:05;11.90;99.90
36498;DHT22;22513;51.222;6.480;2022-12-29T01:40:31;11.90;99.90
36498;DHT22;22513;51.222;6.480;2022-12-29T01:42:56;11.80;99.90
36498;DHT22;22513;51.222;6.480;2022-12-29T01:45:22;11.80;99.90
36498;DHT22;22513;51.222;6.480;2022-12-29T01:47:52;11.80;99.90
36498;DHT22;22513;51.222;6.480;2022-12-29T01:50:33;11.80;99.90
36498;DHT22;22513;51.222;6.480;2022-12-29T01:53:11;11.70;99.90
36498;DHT22;22513;51.222;6.480;2022-12-29T01:55:46;11.60;99.90
36498;DHT22;22513;51.222;6.480;2022-12-29T01:58:15;11.60;99.90
36498;DHT22;22513;51.222;6.480;2022-12-29T02:00:41;11.60;99.90
36498;DHT22;22513;51.222;6.480;2022-12-29T02:03:07;11.60;99.90
36498;DHT22;22513;51.222;6.480;2022-12-29T02:05:34;11.60;99.90
36498;DHT22;22513;51.222;6.480;2022-12-29T02:08:02;11.50;99.90
36498;DHT22;22513;51.222;6.480;2022-12-29T02:10:30;11.50;99.90
36498;DHT22;22513;51.222;6.480;2022-12-29T02:12:56;11.50;99.90
36498;DHT22;22513;51.222;6.480;2022-12-29T02:15:48;11.60;99.90
36498;DHT22;22513;51.222;6.480;2022-12-29T02:21:18;11.60;99.90
36498;DHT22;22513;51.222;6.480;2022-12-29T02:26:36;11.60;99.90
36498;DHT22;22513;51.222;6.480;2022-12-29T02:31:37;11.50;99.90
36498;DHT22;22513;51.222;6.480;2022-12-29T02:39:28;11.50;99.90
36498;DHT22;22513;51.222;6.480;2022-12-29T02:53:15;11.70;99.90
36498;DHT22;22513;51.222;6.480;2022-12-29T02:55:49;11.70;99.90
36498;DHT22;22513;51.222;6.480;2022-12-29T02:58:22;11.70;99.90
36498;DHT22;22513;51.222;6.480;2022-12-29T03:00:51;11.70;99.90
36498;DHT22;22513;51.222;6.480;2022-12-29T03:03:35;11.70;99.90
36498;DHT22;22513;51.222;6.480;2022-12-29T03:15:39;11.80;99.90
36498;DHT22;22513;51.222;6.480;2022-12-29T03:18:37;11.80;99.90
36498;DHT22;22513;51.222;6.480;2022-12-29T03:21:21;11.80;99.90
36498;DHT22;22513;51.222;6.480;2022-12-29T03:24:10;11.80;99.90
36498;DHT22;22513;51.222;6.480;2022-12-29T03:26:37;11.70;99.90
36498;DHT22;22513;51.222;6.480;2022-12-29T03:29:03;11.70;99.90
36498;DHT22;22513;51.222;6.480;2022-12-29T03:31:31;11.60;99.90
36498;DHT22;22513;51.222;6.480;2022-12-29T03:33:56;11.60;99.90
36498;DHT22;22513;51.222;6.480;2022-12-29T03:36:30;11.70;99.90
36498;DHT22;22513;51.222;6.480;2022-12-29T03:39:04;11.60;99.90
36498;DHT22;22513;51.222;6.480;2022-12-29T03:41:32;11.70;99.90
36498;DHT22;22513;51.222;6.480;2022-12-29T03:43:58;11.70;99.90
36498;DHT22;22513;51.222;6.480;2022-12-29T03:46:24;11.70;99.90
36498;DHT22;22513;51.222;6.480;2022-12-29T03:48:50;11.70;99.90
36498;DHT22;22513;51.222;6.480;2022-12-29T03:51:15;11.70;99.90
36498;DHT22;22513;51.222;6.480;2022-12-29T03:53:41;11.70;99.90
36498;DHT22;22513;51.222;6.480;2022-12-29T03:56:06;11.70;99.90
36498;DHT22;22513;51.222;6.480;2022-12-29T03:58:32;11.70;99.90
36498;DHT22;22513;51.222;6.480;2022-12-29T04:00:57;11.70;99.90
36498;DHT22;22513;51.222;6.480;2022-12-29T04:03:23;11.80;99.90
36498;DHT22;22513;51.222;6.480;2022-12-29T04:05:49;11.90;99.90
36498;DHT22;22513;51.222;6.480;2022-12-29T04:08:14;11.90;99.90
36498;DHT22;22513;51.222;6.480;2022-12-29T04:10:40;11.90;99.90
36498;DHT22;22513;51.222;6.480;2022-12-29T04:13:05;11.90;99.90
36498;DHT22;22513;51.222;6.480;2022-12-29T04:15:31;11.90;99.90
36498;DHT22;22513;51.222;6.480;2022-12-29T04:17:57;11.90;99.90
36498;DHT22;22513;51.222;6.480;2022-12-29T04:20:22;11.90;99.90
36498;DHT22;22513;51.222;6.480;2022-12-29T04:23:06;11.90;99.90
36498;DHT22;22513;51.222;6.480;2022-12-29T04:25:32;11.90;99.90
36498;DHT22;22513;51.222;6.480;2022-12-29T04:27:58;11.80;99.90
36498;DHT22;22513;51.222;6.480;2022-12-29T04:30:24;11.80;99.90
36498;DHT22;22513;51.222;6.480;2022-12-29T04:32:50;11.70;99.90
36498;DHT22;22513;51.222;6.480;2022-12-29T04:35:15;11.70;99.90
36498;DHT22;22513;51.222;6.480;2022-12-29T04:37:41;11.70;99.90
36498;DHT22;22513;51.222;6.480;2022-12-29T04:40:07;11.60;99.90
36498;DHT22;22513;51.222;6.480;2022-12-29T04:42:33;11.50;99.90
36498;DHT22;22513;51.222;6.480;2022-12-29T04:44:58;11.60;99.90
36498;DHT22;22513;51.222;6.480;2022-12-29T04:47:24;11.70;99.90
36498;DHT22;22513;51.222;6.480;2022-12-29T04:49:49;11.70;99.90
36498;DHT22;22513;51.222;6.480;2022-12-29T04:52:15;11.80;99.90
36498;DHT22;22513;51.222;6.480;2022-12-29T04:54:40;11.80;99.90
36498;DHT22;22513;51.222;6.480;2022-12-29T04:57:06;11.80;99.90
36498;DHT22;22513;51.222;6.480;2022-12-29T04:59:31;11.80;99.90
36498;DHT22;22513;51.222;6.480;2022-12-29T05:01:57;11.80;99.90
36498;DHT22;22513;51.222;6.480;2022-12-29T05:04:23;11.80;99.90
36498;DHT22;22513;51.222;6.480;2022-12-29T05:06:49;11.80;99.90
36498;DHT22;22513;51.222;6.480;2022-12-29T05:09:15;11.80;99.90
36498;DHT22;22513;51.222;6.480;2022-12-29T05:11:40;11.90;99.90
36498;DHT22;22513;51.222;6.480;2022-12-29T05:14:06;11.90;99.90
36498;DHT22;22513;51.222;6.480;2022-12-29T05:16:31;11.90;99.90
36498;DHT22;22513;51.222;6.480;2022-12-29T05:18:57;11.90;99.90
36498;DHT22;22513;51.222;6.480;2022-12-29T05:21:22;12.00;99.90
36498;DHT22;22513;51.222;6.480;2022-12-29T05:23:48;12.00;99.90
36498;DHT22;22513;51.222;6.480;2022-12-29T05:26:14;12.00;99.90
36498;DHT22;22513;51.222;6.480;2022-12-29T05:28:39;12.00;99.90
36498;DHT22;22513;51.222;6.480;2022-12-29T05:31:05;12.10;99.90
36498;DHT22;22513;51.222;6.480;2022-12-29T05:33:30;12.10;99.90
36498;DHT22;22513;51.222;6.480;2022-12-29T05:35:56;12.00;99.90
36498;DHT22;22513;51.222;6.480;2022-12-29T05:38:21;12.00;99.90
36498;DHT22;22513;51.222;6.480;2022-12-29T05:40:47;11.90;99.90
36498;DHT22;22513;51.222;6.480;2022-12-29T05:43:12;11.80;99.90
36498;DHT22;22513;51.222;6.480;2022-12-29T05:45:38;11.70;99.90
36498;DHT22;22513;51.222;6.480;2022-12-29T05:48:04;11.60;99.90
36498;DHT22;22513;51.222;6.480;2022-12-29T05:50:29;11.50;99.90
36498;DHT22;22513;51.222;6.480;2022-12-29T05:52:55;11.40;99.90
36498;DHT22;22513;51.222;6.480;2022-12-29T05:55:20;11.30;99.90
36498;DHT22;22513;51.222;6.480;2022-12-29T05:57:46;11.30;99.90
36498;DHT22;22513;51.222;6.480;2022-12-29T06:00:12;11.30;99.90
36498;DHT22;22513;51.222;6.480;2022-12-29T06:02:39;11.30;99.90
36498;DHT22;22513;51.222;6.480;2022-12-29T06:05:05;11.20;99.90
36498;DHT22;22513;51.222;6.480;2022-12-29T06:10:00;11.20;99.90
36498;DHT22;22513;51.222;6.480;2022-12-29T06:12:25;11.10;99.90
36498;DHT22;22513;51.222;6.480;2022-12-29T06:14:51;11.10;99.90
36498;DHT22;22513;51.222;6.480;2022-12-29T06:17:17;11.10;99.90
36498;DHT22;22513;51.222;6.480;2022-12-29T06:19:42;11.00;99.90
36498;DHT22;22513;51.222;6.480;2022-12-29T06:22:09;11.00;99.90
36498;DHT22;22513;51.222;6.480;2022-12-29T06:24:37;11.00;99.90
36498;DHT22;22513;51.222;6.480;2022-12-29T06:27:03;11.00;99.90
36498;DHT22;22513;51.222;6.480;2022-12-29T06:29:29;11.10;99.90
36498;DHT22;22513;51.222;6.480;2022-12-29T06:31:54;11.10;99.90
36498;DHT22;22513;51.222;6.480;2022-12-29T06:34:23;11.20;99.90
36498;DHT22;22513;51.222;6.480;2022-12-29T06:36:49;11.30;99.90
36498;DHT22;22513;51.222;6.480;2022-12-29T06:39:15;11.30;99.90
36498;DHT22;22513;51.222;6.480;2022-12-29T06:41:40;11.40;99.90
36498;DHT22;22513;51.222;6.480;2022-12-29T06:44:06;11.40;99.90
36498;DHT22;22513;51.222;6.480;2022-12-29T06:46:32;11.50;99.90
36498;DHT22;22513;51.222;6.480;2022-12-29T06:48:57;11.40;99.90
36498;DHT22;22513;51.222;6.480;2022-12-29T06:51:23;11.40;99.90
36498;DHT22;22513;51.222;6.480;2022-12-29T06:53:48;11.40;99.90
36498;DHT22;22513;51.222;6.480;2022-12-29T06:56:14;11.30;99.90
36498;DHT22;22513;51.222;6.480;2022-12-29T06:58:39;11.30;99.90
36498;DHT22;22513;51.222;6.480;2022-12-29T07:01:05;11.30;99.90
36498;DHT22;22513;51.222;6.480;2022-12-29T07:03:30;11.30;99.90
36498;DHT22;22513;51.222;6.480;2022-12-29T07:05:56;11.30;99.90
36498;DHT22;22513;51.222;6.480;2022-12-29T07:08:23;11.20;99.90
36498;DHT22;22513;51.222;6.480;2022-12-29T07:10:49;11.10;99.90
36498;DHT22;22513;51.222;6.480;2022-12-29T07:13:15;11.00;99.90
36498;DHT22;22513;51.222;6.480;2022-12-29T07:15:40;11.00;99.90
36498;DHT22;22513;51.222;6.480;2022-12-29T07:18:06;10.90;99.90
36498;DHT22;22513;51.222;6.480;2022-12-29T07:20:32;10.90;99.90
36498;DHT22;22513;51.222;6.480;2022-12-29T07:22:58;10.90;99.90
36498;DHT22;22513;51.222;6.480;2022-12-29T07:25:24;10.90;99.90
36498;DHT22;22513;51.222;6.480;2022-12-29T07:27:49;10.90;99.90
36498;DHT22;22513;51.222;6.480;2022-12-29T07:30:15;10.90;99.90
36498;DHT22;22513;51.222;6.480;2022-12-29T07:32:41;10.90;99.90
36498;DHT22;22513;51.222;6.480;2022-12-29T07:35:07;10.90;99.90
36498;DHT22;22513;51.222;6.480;2022-12-29T07:37:33;10.90;99.90
36498;DHT22;22513;51.222;6.480;2022-12-29T07:40:00;11.00;99.90
36498;DHT22;22513;51.222;6.480;2022-12-29T07:42:26;11.00;99.90
36498;DHT22;22513;51.222;6.480;2022-12-29T07:44:52;11.00;99.90
36498;DHT22;22513;51.222;6.480;2022-12-29T07:47:17;11.00;99.90
36498;DHT22;22513;51.222;6.480;2022-12-29T07:49:43;11.10;99.90
36498;DHT22;22513;51.222;6.480;2022-12-29T07:52:09;11.10;99.90
36498;DHT22;22513;51.222;6.480;2022-12-29T07:54:34;11.10;99.90
36498;DHT22;22513;51.222;6.480;2022-12-29T07:57:00;11.00;99.90
36498;DHT22;22513;51.222;6.480;2022-12-29T07:59:26;11.00;99.90
36498;DHT22;22513;51.222;6.480;2022-12-29T08:01:51;11.00;99.90
36498;DHT22;22513;51.222;6.480;2022-12-29T08:04:17;11.00;99.90
36498;DHT22;22513;51.222;6.480;2022-12-29T08:06:43;10.90;99.90
36498;DHT22;22513;51.222;6.480;2022-12-29T08:09:10;10.90;99.90
36498;DHT22;22513;51.222;6.480;2022-12-29T08:11:36;10.80;99.90
36498;DHT22;22513;51.222;6.480;2022-12-29T08:14:02;10.80;99.90
36498;DHT22;22513;51.222;6.480;2022-12-29T08:16:28;10.70;99.90
36498;DHT22;22513;51.222;6.480;2022-12-29T08:18:53;10.70;99.90
36498;DHT22;22513;51.222;6.480;2022-12-29T08:21:19;10.70;99.90
36498;DHT22;22513;51.222;6.480;2022-12-29T08:23:44;10.70;99.90
36498;DHT22;22513;51.222;6.480;2022-12-29T08:26:10;10.80;99.90
36498;DHT22;22513;51.222;6.480;2022-12-29T08:28:36;10.90;99.90
36498;DHT22;22513;51.222;6.480;2022-12-29T08:31:02;10.90;99.90
36498;DHT22;22513;51.222;6.480;2022-12-29T08:33:29;11.00;99.90
36498;DHT22;22513;51.222;6.480;2022-12-29T08:36:06;11.00;99.90
36498;DHT22;22513;51.222;6.480;2022-12-29T08:38:32;11.00;99.90
36498;DHT22;22513;51.222;6.480;2022-12-29T08:40:58;11.00;99.90
36498;DHT22;22513;51.222;6.480;2022-12-29T08:43:24;10.90;99.90
36498;DHT22;22513;51.222;6.480;2022-12-29T08:45:50;10.90;99.90
36498;DHT22;22513;51.222;6.480;2022-12-29T08:48:16;10.90;99.90
36498;DHT22;22513;51.222;6.480;2022-12-29T08:50:45;10.80;99.90
36498;DHT22;22513;51.222;6.480;2022-12-29T08:53:11;10.70;99.90
36498;DHT22;22513;51.222;6.480;2022-12-29T08:55:37;10.60;99.90
36498;DHT22;22513;51.222;6.480;2022-12-29T08:58:02;10.60;99.90
36498;DHT22;22513;51.222;6.480;2022-12-29T09:00:28;10.60;99.90
36498;DHT22;22513;51.222;6.480;2022-12-29T09:02:53;10.60;99.90
36498;DHT22;22513;51.222;6.480;2022-12-29T09:05:19;10.70;99.90
36498;DHT22;22513;51.222;6.480;2022-12-29T09:10:14;10.80;99.90
36498;DHT22;22513;51.222;6.480;2022-12-29T09:12:40;10.90;99.90
36498;DHT22;22513;51.222;6.480;2022-12-29T09:15:06;11.10;99.90
36498;DHT22;22513;51.222;6.480;2022-12-29T09:17:32;11.10;99.90
36498;DHT22;22513;51.222;6.480;2022-12-29T09:20:18;11.20;99.90
36498;DHT22;22513;51.222;6.480;2022-12-29T09:22:45;11.20;99.90
36498;DHT22;22513;51.222;6.480;2022-12-29T09:25:11;11.20;99.90
36498;DHT22;22513;51.222;6.480;2022-12-29T09:27:37;11.20;99.90
36498;DHT22;22513;51.222;6.480;2022-12-29T09:30:04;11.30;99.90
36498;DHT22;22513;51.222;6.480;2022-12-29T09:32:32;11.30;99.90
36498;DHT22;22513;51.222;6.480;2022-12-29T09:34:57;11.40;99.90
36498;DHT22;22513;51.222;6.480;2022-12-29T09:37:23;11.40;99.90
36498;DHT22;22513;51.222;6.480;2022-12-29T09:39:48;11.50;99.90
36498;DHT22;22513;51.222;6.480;2022-12-29T09:42:22;11.50;99.90
36498;DHT22;22513;51.222;6.480;2022-12-29T09:44:59;11.50;99.90
36498;DHT22;22513;51.222;6.480;2022-12-29T09:47:26;11.60;99.90
36498;DHT22;22513;51.222;6.480;2022-12-29T09:50:33;11.60;99.90
36498;DHT22;22513;51.222;6.480;2022-12-29T09:53:00;11.60;99.90
36498;DHT22;22513;51.222;6.480;2022-12-29T09:55:38;11.50;99.90
36498;DHT22;22513;51.222;6.480;2022-12-29T09:58:47;11.50;99.90
36498;DHT22;22513;51.222;6.480;2022-12-29T10:03:53;11.50;99.90
36498;DHT22;22513;51.222;6.480;2022-12-29T10:06:33;11.60;99.90
36498;DHT22;22513;51.222;6.480;2022-12-29T10:12:03;11.60;99.90
36498;DHT22;22513;51.222;6.480;2022-12-29T10:17:37;11.50;99.90
36498;DHT22;22513;51.222;6.480;2022-12-29T10:23:33;11.50;99.90
36498;DHT22;22513;51.222;6.480;2022-12-29T10:26:01;11.50;99.90
36498;DHT22;22513;51.222;6.480;2022-12-29T10:31:17;11.50;99.90
36498;DHT22;22513;51.222;6.480;2022-12-29T10:33:49;11.50;99.90
36498;DHT22;22513;51.222;6.480;2022-12-29T10:36:25;11.50;99.90
36498;DHT22;22513;51.222;6.480;2022-12-29T10:39:02;11.50;99.90
36498;DHT22;22513;51.222;6.480;2022-12-29T10:44:34;11.70;99.90
36498;DHT22;22513;51.222;6.480;2022-12-29T10:47:04;11.80;99.90
36498;DHT22;22513;51.222;6.480;2022-12-29T10:49:34;11.80;99.90
36498;DHT22;22513;51.222;6.480;2022-12-29T10:52:03;12.00;99.90
36498;DHT22;22513;51.222;6.480;2022-12-29T10:54:33;12.10;99.90
36498;DHT22;22513;51.222;6.480;2022-12-29T10:57:10;12.10;99.90
36498;DHT22;22513;51.222;6.480;2022-12-29T10:59:37;12.20;99.90
36498;DHT22;22513;51.222;6.480;2022-12-29T11:07:00;12.10;99.90
36498;DHT22;22513;51.222;6.480;2022-12-29T11:09:31;12.10;99.90
36498;DHT22;22513;51.222;6.480;2022-12-29T11:11:57;12.00;99.90
36498;DHT22;22513;51.222;6.480;2022-12-29T11:14:28;11.90;99.90
36498;DHT22;22513;51.222;6.480;2022-12-29T11:17:02;11.90;99.90
36498;DHT22;22513;51.222;6.480;2022-12-29T11:19:30;11.90;99.90
36498;DHT22;22513;51.222;6.480;2022-12-29T11:22:21;11.90;99.90
36498;DHT22;22513;51.222;6.480;2022-12-29T11:24:50;12.00;99.90
36498;DHT22;22513;51.222;6.480;2022-12-29T11:27:25;12.00;99.90
36498;DHT22;22513;51.222;6.480;2022-12-29T11:29:52;12.10;99.90
36498;DHT22;22513;51.222;6.480;2022-12-29T11:34:47;12.20;99.90
36498;DHT22;22513;51.222;6.480;2022-12-29T11:37:18;12.10;99.90
36498;DHT22;22513;51.222;6.480;2022-12-29T11:42:47;12.10;99.90
36498;DHT22;22513;51.222;6.480;2022-12-29T11:45:36;12.00;99.90
36498;DHT22;22513;51.222;6.480;2022-12-29T11:48:20;12.10;99.90
36498;DHT22;22513;51.222;6.480;2022-12-29T11:50:52;12.10;99.90
36498;DHT22;22513;51.222;6.480;2022-12-29T11:53:23;12.20;99.90
36498;DHT22;22513;51.222;6.480;2022-12-29T11:55:58;12.20;99.90
36498;DHT22;22513;51.222;6.480;2022-12-29T11:58:35;12.30;99.90
36498;DHT22;22513;51.222;6.480;2022-12-29T12:06:23;12.30;99.90
36498;DHT22;22513;51.222;6.480;2022-12-29T12:09:10;12.20;99.90
36498;DHT22;22513;51.222;6.480;2022-12-29T12:11:40;12.20;99.90
36498;DHT22;22513;51.222;6.480;2022-12-29T12:14:19;12.20;99.90
36498;DHT22;22513;51.222;6.480;2022-12-29T12:16:54;12.20;99.90
36498;DHT22;22513;51.222;6.480;2022-12-29T12:19:34;12.10;99.90
36498;DHT22;22513;51.222;6.480;2022-12-29T12:22:27;12.10;99.90
36498;DHT22;22513;51.222;6.480;2022-12-29T12:24:58;12.10;99.90
36498;DHT22;22513;51.222;6.480;2022-12-29T12:27:32;12.00;99.90
36498;DHT22;22513;51.222;6.480;2022-12-29T12:35:16;12.00;99.90
36498;DHT22;22513;51.222;6.480;2022-12-29T12:45:56;12.00;99.90
36498;DHT22;22513;51.222;6.480;2022-12-29T13:00:15;12.00;99.90
36498;DHT22;22513;51.222;6.480;2022-12-29T13:10:43;12.00;99.90
36498;DHT22;22513;51.222;6.480;2022-12-29T13:19:30;11.80;99.90
36498;DHT22;22513;51.222;6.480;2022-12-29T13:38:48;11.90;99.90
36498;DHT22;22513;51.222;6.480;2022-12-29T13:41:32;12.00;99.90
36498;DHT22;22513;51.222;6.480;2022-12-29T13:44:01;12.00;99.90
36498;DHT22;22513;51.222;6.480;2022-12-29T13:46:48;11.90;99.90
36498;DHT22;22513;51.222;6.480;2022-12-29T13:49:21;11.90;99.90
36498;DHT22;22513;51.222;6.480;2022-12-29T13:51:58;11.80;99.90
36498;DHT22;22513;51.222;6.480;2022-12-29T13:56:59;11.70;99.90
36498;DHT22;22513;51.222;6.480;2022-12-29T13:59:51;11.70;99.90
36498;DHT22;22513;51.222;6.480;2022-12-29T14:02:56;11.70;99.90
36498;DHT22;22513;51.222;6.480;2022-12-29T14:07:48;11.70;99.90
36498;DHT22;22513;51.222;6.480;2022-12-29T14:10:32;11.70;99.90
36498;DHT22;22513;51.222;6.480;2022-12-29T14:13:12;11.60;99.90
36498;DHT22;22513;51.222;6.480;2022-12-29T14:15:40;11.60;99.90
36498;DHT22;22513;51.222;6.480;2022-12-29T14:18:17;11.60;99.90
36498;DHT22;22513;51.222;6.480;2022-12-29T14:20:53;11.60;99.90
36498;DHT22;22513;51.222;6.480;2022-12-29T14:28:40;11.40;99.90
36498;DHT22;22513;51.222;6.480;2022-12-29T14:39:49;11.30;99.90
36498;DHT22;22513;51.222;6.480;2022-12-29T14:44:34;11.30;99.90
36498;DHT22;22513;51.222;6.480;2022-12-29T14:47:37;11.20;99.90
36498;DHT22;22513;51.222;6.480;2022-12-29T14:52:56;11.20;99.90
36498;DHT22;22513;51.222;6.480;2022-12-29T14:58:00;11.20;99.90
36498;DHT22;22513;51.222;6.480;2022-12-29T15:00:33;11.10;99.90
36498;DHT22;22513;51.222;6.480;2022-12-29T15:03:17;11.10;99.90
36498;DHT22;22513;51.222;6.480;2022-12-29T15:05:50;11.10;99.90
36498;DHT22;22513;51.222;6.480;2022-12-29T15:08:18;11.10;99.90
36498;DHT22;22513;51.222;6.480;2022-12-29T15:10:53;11.00;99.90
36498;DHT22;22513;51.222;6.480;2022-12-29T15:13:36;11.00;99.90
36498;DHT22;22513;51.222;6.480;2022-12-29T15:16:03;11.00;99.90
36498;DHT22;22513;51.222;6.480;2022-12-29T15:18:32;10.90;99.90
36498;DHT22;22513;51.222;6.480;2022-12-29T15:21:03;10.90;99.90
36498;DHT22;22513;51.222;6.480;2022-12-29T15:23:31;10.80;99.90
36498;DHT22;22513;51.222;6.480;2022-12-29T15:25:58;10.70;99.90
36498;DHT22;22513;51.222;6.480;2022-12-29T15:28:27;10.50;99.90
36498;DHT22;22513;51.222;6.480;2022-12-29T15:30:53;10.40;99.90
36498;DHT22;22513;51.222;6.480;2022-12-29T15:33:21;10.30;99.90
36498;DHT22;22513;51.222;6.480;2022-12-29T15:35:51;10.10;99.90
36498;DHT22;22513;51.222;6.480;2022-12-29T15:38:26;10.00;99.90
36498;DHT22;22513;51.222;6.480;2022-12-29T15:40:59;10.00;99.90
36498;DHT22;22513;51.222;6.480;2022-12-29T15:43:59;9.90;99.90
36498;DHT22;22513;51.222;6.480;2022-12-29T15:46:32;9.90;99.90
36498;DHT22;22513;51.222;6.480;2022-12-29T15:48:58;9.90;99.90
36498;DHT22;22513;51.222;6.480;2022-12-29T15:51:31;9.90;99.90
36498;DHT22;22513;51.222;6.480;2022-12-29T15:53:58;10.00;99.90
36498;DHT22;22513;51.222;6.480;2022-12-29T15:56:24;10.00;99.90
36498;DHT22;22513;51.222;6.480;2022-12-29T15:58:53;10.00;99.90
36498;DHT22;22513;51.222;6.480;2022-12-29T16:03:48;10.10;99.90
36498;DHT22;22513;51.222;6.480;2022-12-29T16:09:14;10.00;99.90
36498;DHT22;22513;51.222;6.480;2022-12-29T16:11:59;10.00;99.90
36498;DHT22;22513;51.222;6.480;2022-12-29T16:14:41;9.90;99.90
36498;DHT22;22513;51.222;6.480;2022-12-29T16:17:18;9.90;99.90
36498;DHT22;22513;51.222;6.480;2022-12-29T16:19:54;9.90;99.90
36498;DHT22;22513;51.222;6.480;2022-12-29T16:22:30;9.90;99.90
36498;DHT22;22513;51.222;6.480;2022-12-29T16:24:59;10.00;99.90
36498;DHT22;22513;51.222;6.480;2022-12-29T16:27:44;10.00;99.90
36498;DHT22;22513;51.222;6.480;2022-12-29T16:30:25;10.00;99.90
36498;DHT22;22513;51.222;6.480;2022-12-29T16:32:53;10.00;99.90
36498;DHT22;22513;51.222;6.480;2022-12-29T16:35:20;10.10;99.90
36498;DHT22;22513;51.222;6.480;2022-12-29T16:37:47;10.10;99.90
36498;DHT22;22513;51.222;6.480;2022-12-29T16:40:29;10.10;99.90
36498;DHT22;22513;51.222;6.480;2022-12-29T16:43:00;10.10;99.90
36498;DHT22;22513;51.222;6.480;2022-12-29T16:48:18;10.10;99.90
36498;DHT22;22513;51.222;6.480;2022-12-29T16:50:45;10.10;99.90
36498;DHT22;22513;51.222;6.480;2022-12-29T16:53:25;10.10;99.90
36498;DHT22;22513;51.222;6.480;2022-12-29T16:55:53;10.00;99.90
36498;DHT22;22513;51.222;6.480;2022-12-29T16:58:25;10.00;99.90
36498;DHT22;22513;51.222;6.480;2022-12-29T17:00:55;10.00;99.90
36498;DHT22;22513;51.222;6.480;2022-12-29T17:03:22;10.00;99.90
36498;DHT22;22513;51.222;6.480;2022-12-29T17:05:47;10.00;99.90
36498;DHT22;22513;51.222;6.480;2022-12-29T17:10:40;10.00;99.90
36498;DHT22;22513;51.222;6.480;2022-12-29T17:13:24;10.00;99.90
36498;DHT22;22513;51.222;6.480;2022-12-29T17:15:49;9.90;99.90
36498;DHT22;22513;51.222;6.480;2022-12-29T17:18:15;9.80;99.90
36498;DHT22;22513;51.222;6.480;2022-12-29T17:20:40;9.50;99.90
36498;DHT22;22513;51.222;6.480;2022-12-29T17:23:14;9.10;99.90
36498;DHT22;22513;51.222;6.480;2022-12-29T17:25:40;8.70;99.90
36498;DHT22;22513;51.222;6.480;2022-12-29T17:28:27;8.50;99.90
36498;DHT22;22513;51.222;6.480;2022-12-29T17:30:57;8.40;99.90
36498;DHT22;22513;51.222;6.480;2022-12-29T17:33:23;8.30;99.90
36498;DHT22;22513;51.222;6.480;2022-12-29T17:35:49;8.20;99.90
36498;DHT22;22513;51.222;6.480;2022-12-29T17:40:42;8.00;99.90
36498;DHT22;22513;51.222;6.480;2022-12-29T17:43:12;7.90;99.90
36498;DHT22;22513;51.222;6.480;2022-12-29T17:45:39;7.80;99.90
36498;DHT22;22513;51.222;6.480;2022-12-29T17:48:12;7.70;99.90
36498;DHT22;22513;51.222;6.480;2022-12-29T17:50:38;7.70;99.90
36498;DHT22;22513;51.222;6.480;2022-12-29T17:53:11;7.60;99.90
36498;DHT22;22513;51.222;6.480;2022-12-29T17:55:37;7.60;99.90
36498;DHT22;22513;51.222;6.480;2022-12-29T17:58:21;7.50;99.90
36498;DHT22;22513;51.222;6.480;2022-12-29T18:00:55;7.40;99.90
36498;DHT22;22513;51.222;6.480;2022-12-29T18:03:33;7.30;99.90
36498;DHT22;22513;51.222;6.480;2022-12-29T18:06:00;7.20;99.90
36498;DHT22;22513;51.222;6.480;2022-12-29T18:08:26;7.20;99.90
36498;DHT22;22513;51.222;6.480;2022-12-29T18:10:54;7.10;99.90
36498;DHT22;22513;51.222;6.480;2022-12-29T18:13:24;7.10;99.90
36498;DHT22;22513;51.222;6.480;2022-12-29T18:15:51;7.10;99.90
36498;DHT22;22513;51.222;6.480;2022-12-29T18:18:19;7.10;99.90
36498;DHT22;22513;51.222;6.480;2022-12-29T18:20:46;7.00;99.90
36498;DHT22;22513;51.222;6.480;2022-12-29T18:23:23;7.00;99.90
36498;DHT22;22513;51.222;6.480;2022-12-29T18:25:56;7.00;99.90
36498;DHT22;22513;51.222;6.480;2022-12-29T18:28:23;7.00;99.90
36498;DHT22;22513;51.222;6.480;2022-12-29T18:30:50;7.00;99.90
36498;DHT22;22513;51.222;6.480;2022-12-29T18:33:17;7.00;99.90
36498;DHT22;22513;51.222;6.480;2022-12-29T18:38:14;7.00;99.90
36498;DHT22;22513;51.222;6.480;2022-12-29T18:40:40;7.10;99.90
36498;DHT22;22513;51.222;6.480;2022-12-29T18:43:05;7.20;99.90
36498;DHT22;22513;51.222;6.480;2022-12-29T18:45:32;7.20;99.90
36498;DHT22;22513;51.222;6.480;2022-12-29T18:47:59;7.10;99.90